createdAt,value
2018-07-28T00:02:36.936Z,11.33
2018-07-28T00:05:17.301Z,9.60
2018-07-28T00:07:58.301Z,11.03
2018-07-28T00:10:39.427Z,11.40
2018-07-28T00:13:20.558Z,12.00
2018-07-28T00:16:01.325Z,11.50
2018-07-28T00:18:41.795Z,12.30
2018-07-28T00:21:22.308Z,12.17
2018-07-28T00:24:02.814Z,13.07
2018-07-28T00:26:43.563Z,14.53
2018-07-28T00:29:24.660Z,12.57
2018-07-28T00:32:05.370Z,11.70
2018-07-28T00:34:45.873Z,11.63
2018-07-28T00:37:26.535Z,12.50
2018-07-28T00:40:07.893Z,11.33
2018-07-28T00:42:48.768Z,12.87
2018-07-28T00:45:29.625Z,13.80
2018-07-28T00:48:10.380Z,12.90
2018-07-28T00:50:51.159Z,18.77
2018-07-28T00:53:31.636Z,21.37
2018-07-28T00:56:19.173Z,26.93
2018-07-28T00:58:59.568Z,27.83
2018-07-28T01:01:40.865Z,27.37
2018-07-28T01:04:21.676Z,28.87
2018-07-28T01:07:02.573Z,29.93
2018-07-28T01:09:43.784Z,25.67
2018-07-28T01:12:24.519Z,26.57
2018-07-28T01:15:08.657Z,19.97
2018-07-28T01:17:49.377Z,20.23
2018-07-28T01:20:30.629Z,19.20
2018-07-28T01:23:11.689Z,18.80
2018-07-28T01:25:52.496Z,18.93
2018-07-28T01:28:33.304Z,19.53
2018-07-28T01:31:14.449Z,19.90
2018-07-28T01:33:55.963Z,19.77
2018-07-28T01:36:39.876Z,19.47
2018-07-28T01:39:20.665Z,19.30
2018-07-28T01:42:01.556Z,20.70
2018-07-28T01:44:42.244Z,19.73
2018-07-28T01:47:22.956Z,19.90
2018-07-28T01:50:03.772Z,16.83
2018-07-28T01:52:44.809Z,17.27
2018-07-28T01:55:25.135Z,16.47
2018-07-28T01:58:05.942Z,18.27
2018-07-28T02:00:46.433Z,15.30
2018-07-28T02:03:27.301Z,16.10
2018-07-28T02:06:08.124Z,17.13
2018-07-28T02:08:49.388Z,16.80
2018-07-28T02:11:29.824Z,15.73
2018-07-28T02:14:11.182Z,18.97
2018-07-28T02:16:52.273Z,18.17
2018-07-28T02:19:32.993Z,13.53
2018-07-28T02:22:13.908Z,14.90
2018-07-28T02:24:54.281Z,14.33
2018-07-28T02:27:35.279Z,18.63
2018-07-28T02:30:15.965Z,13.37
2018-07-28T02:32:56.802Z,13.33
2018-07-28T02:35:37.700Z,14.80
2018-07-28T02:38:18.111Z,13.97
2018-07-28T02:40:59.160Z,14.63
2018-07-28T02:43:39.695Z,12.70
2018-07-28T02:46:20.477Z,12.93
2018-07-28T02:49:01.029Z,12.23
2018-07-28T02:51:42.245Z,12.00
2018-07-28T02:54:23.415Z,12.60
2018-07-28T02:57:03.811Z,12.63
2018-07-28T02:59:45.019Z,11.63
2018-07-28T03:02:25.738Z,12.47
2018-07-28T03:05:08.020Z,13.43
2018-07-28T03:07:50.054Z,12.17
2018-07-28T03:10:30.957Z,13.53
2018-07-28T03:13:12.208Z,12.03
2018-07-28T03:15:52.976Z,13.13
2018-07-28T03:18:33.541Z,13.03
2018-07-28T03:21:14.308Z,12.93
2018-07-28T03:23:55.319Z,12.90
2018-07-28T03:26:35.994Z,13.20
2018-07-28T03:29:17.235Z,13.33
2018-07-28T03:31:58.110Z,14.80
2018-07-28T03:34:39.165Z,13.60
2018-07-28T03:37:19.948Z,13.30
2018-07-28T03:40:01.191Z,13.17
2018-07-28T03:42:41.789Z,12.83
2018-07-28T03:45:22.258Z,13.80
2018-07-28T03:48:03.257Z,13.30
2018-07-28T03:50:45.085Z,13.03
2018-07-28T03:53:25.617Z,13.13
2018-07-28T03:56:07.051Z,12.47
2018-07-28T03:58:47.799Z,12.87
2018-07-28T04:01:28.604Z,12.90
2018-07-28T04:04:11.348Z,13.37
2018-07-28T04:06:52.411Z,13.60
2018-07-28T04:09:33.327Z,12.23
2018-07-28T04:12:14.209Z,14.83
2018-07-28T04:14:54.584Z,12.97
2018-07-28T04:17:39.674Z,12.40
2018-07-28T04:20:20.909Z,13.97
2018-07-28T04:23:01.399Z,14.30
2018-07-28T04:25:42.239Z,13.83
2018-07-28T04:28:23.053Z,13.20
2018-07-28T04:31:03.975Z,12.23
2018-07-28T04:33:44.754Z,13.27
2018-07-28T04:36:25.557Z,12.87
2018-07-28T04:39:10.796Z,12.60
2018-07-28T04:41:52.200Z,12.23
2018-07-28T04:44:33.037Z,12.90
2018-07-28T04:47:13.616Z,13.27
2018-07-28T04:49:54.503Z,13.53
2018-07-28T04:52:35.325Z,12.67
2018-07-28T04:55:16.369Z,12.63
2018-07-28T04:57:56.836Z,12.70
2018-07-28T05:00:37.229Z,11.93
2018-07-28T05:03:17.768Z,12.80
2018-07-28T05:05:58.192Z,11.83
2018-07-28T05:08:39.180Z,12.20
2018-07-28T05:11:20.472Z,11.63
2018-07-28T05:14:01.252Z,11.00
2018-07-28T05:16:41.868Z,11.10
2018-07-28T05:19:23.279Z,11.43
2018-07-28T05:22:04.470Z,10.87
2018-07-28T05:24:45.219Z,13.23
2018-07-28T05:27:26.354Z,13.27
2018-07-28T05:30:09.564Z,11.33
2018-07-28T05:32:50.163Z,10.80
2018-07-28T05:35:31.028Z,12.47
2018-07-28T05:38:11.814Z,12.00
2018-07-28T05:40:52.304Z,11.90
2018-07-28T05:43:32.861Z,11.63
2018-07-28T05:46:13.605Z,11.83
2018-07-28T05:48:54.004Z,12.20
2018-07-28T05:51:34.622Z,11.13
2018-07-28T05:54:15.694Z,12.10
2018-07-28T05:56:56.923Z,12.63
2018-07-28T05:59:37.748Z,11.27
2018-07-28T06:02:18.592Z,11.50
2018-07-28T06:04:59.289Z,12.53
2018-07-28T06:07:40.056Z,11.33
2018-07-28T06:10:20.646Z,10.70
2018-07-28T06:13:01.776Z,12.00
2018-07-28T06:15:42.975Z,11.80
2018-07-28T06:18:24.342Z,12.23
2018-07-28T06:21:05.145Z,13.97
2018-07-28T06:23:45.956Z,11.67
2018-07-28T06:26:26.387Z,12.17
2018-07-28T06:29:06.925Z,11.67
2018-07-28T06:31:47.755Z,12.23
2018-07-28T06:34:28.624Z,14.47
2018-07-28T06:37:09.848Z,11.40
2018-07-28T06:39:50.748Z,14.03
2018-07-28T06:42:31.719Z,11.17
2018-07-28T06:45:12.586Z,12.03
2018-07-28T06:47:53.837Z,11.80
2018-07-28T06:50:35.250Z,13.50
2018-07-28T06:53:15.746Z,11.53
2018-07-28T06:55:56.933Z,12.00
2018-07-28T06:58:37.472Z,11.10
2018-07-28T07:01:18.300Z,10.73
2018-07-28T07:03:59.310Z,13.27
2018-07-28T07:06:40.141Z,11.27
2018-07-28T07:09:20.940Z,11.67
2018-07-28T07:12:01.518Z,10.93
2018-07-28T07:14:42.458Z,10.83
2018-07-28T07:17:22.894Z,11.43
2018-07-28T07:20:03.738Z,12.00
2018-07-28T07:22:44.903Z,11.63
2018-07-28T07:25:25.790Z,10.93
2018-07-28T07:28:06.459Z,10.83
2018-07-28T07:30:47.219Z,12.10
2018-07-28T07:33:34.751Z,11.17
2018-07-28T07:36:16.211Z,10.30
2018-07-28T07:38:56.984Z,10.90
2018-07-28T07:41:38.306Z,11.87
2018-07-28T07:44:19.435Z,11.30
2018-07-28T07:47:00.173Z,10.83
2018-07-28T07:49:41.551Z,11.17
2018-07-28T07:52:22.968Z,11.13
2018-07-28T07:55:03.845Z,10.57
2018-07-28T07:57:45.390Z,11.00
2018-07-28T08:00:26.227Z,9.60
2018-07-28T08:03:07.198Z,9.80
2018-07-28T08:05:48.731Z,10.40
2018-07-28T08:08:29.518Z,7.70
2018-07-28T08:11:10.397Z,9.27
2018-07-28T08:13:51.915Z,8.90
2018-07-28T08:16:32.414Z,8.77
2018-07-28T08:19:13.391Z,8.33
2018-07-28T08:21:53.746Z,9.10
2018-07-28T08:24:35.023Z,8.97
2018-07-28T08:27:15.788Z,8.43
2018-07-28T08:29:56.620Z,8.50
2018-07-28T08:32:37.341Z,8.97
2018-07-28T08:35:17.990Z,8.20
2018-07-28T08:37:58.714Z,9.30
2018-07-28T08:40:39.817Z,7.93
2018-07-28T08:43:20.712Z,7.87
2018-07-28T08:46:01.747Z,7.70
2018-07-28T08:48:42.109Z,7.97
2018-07-28T08:51:22.989Z,8.37
2018-07-28T08:54:03.787Z,8.27
2018-07-28T08:56:44.579Z,7.60
2018-07-28T08:59:26.351Z,8.13
2018-07-28T09:02:07.073Z,7.67
2018-07-28T09:04:47.918Z,8.13
2018-07-28T09:07:28.733Z,8.23
2018-07-28T09:10:09.568Z,7.53
2018-07-28T09:12:50.129Z,7.13
2018-07-28T09:15:31.301Z,7.83
2018-07-28T09:18:12.551Z,7.77
2018-07-28T09:20:53.300Z,7.97
2018-07-28T09:23:33.907Z,7.00
2018-07-28T09:26:15.099Z,7.30
2018-07-28T09:28:55.963Z,7.20
2018-07-28T09:31:36.770Z,7.87
2018-07-28T09:34:17.991Z,7.10
2018-07-28T09:36:59.447Z,7.27
2018-07-28T09:39:40.809Z,7.13
2018-07-28T09:42:21.780Z,6.47
2018-07-28T09:45:02.819Z,8.03
2018-07-28T09:47:44.094Z,9.60
2018-07-28T09:50:24.835Z,7.13
2018-07-28T09:53:05.937Z,6.73
2018-07-28T09:55:47.703Z,7.63
2018-07-28T09:58:28.641Z,6.60
2018-07-28T10:01:14.293Z,7.00
2018-07-28T10:03:55.064Z,6.83
2018-07-28T10:06:35.748Z,7.07
2018-07-28T10:09:16.489Z,6.20
2018-07-28T10:11:57.544Z,7.13
2018-07-28T10:14:38.241Z,6.63
2018-07-28T10:17:19.015Z,10.33
2018-07-28T10:20:00.460Z,6.93
2018-07-28T10:22:40.978Z,6.87
2018-07-28T10:25:22.583Z,6.67
2018-07-28T10:28:03.021Z,6.40
2018-07-28T10:30:44.267Z,7.03
2018-07-28T10:33:25.382Z,8.60
2018-07-28T10:36:06.584Z,7.40
2018-07-28T10:38:47.383Z,8.10
2018-07-28T10:41:28.057Z,8.17
2018-07-28T10:44:09.430Z,7.30
2018-07-28T10:46:50.169Z,7.53
2018-07-28T10:49:31.355Z,8.10
2018-07-28T10:52:12.416Z,8.23
2018-07-28T10:54:53.219Z,7.80
2018-07-28T10:57:33.921Z,7.33
2018-07-28T11:00:14.738Z,7.67
2018-07-28T11:02:55.424Z,7.53
2018-07-28T11:05:36.613Z,9.33
2018-07-28T11:08:17.606Z,8.20
2018-07-28T11:10:58.074Z,8.23
2018-07-28T11:13:39.557Z,8.40
2018-07-28T11:16:19.993Z,9.17
2018-07-28T11:19:00.884Z,8.33
2018-07-28T11:21:41.627Z,8.13
2018-07-28T11:24:22.733Z,11.83
2018-07-28T11:27:03.574Z,9.03
2018-07-28T11:29:44.682Z,7.93
2018-07-28T11:32:42.247Z,7.93
2018-07-28T11:35:40.773Z,7.50
2018-07-28T11:38:38.326Z,7.33
2018-07-28T11:41:36.063Z,7.33
2018-07-28T11:44:33.653Z,8.77
2018-07-28T11:47:14.228Z,7.50
2018-07-28T11:50:01.861Z,6.93
2018-07-28T11:52:43.310Z,7.00
2018-07-28T11:55:24.160Z,7.30
2018-07-28T11:58:05.693Z,7.27
2018-07-28T12:00:46.485Z,8.47
2018-07-28T12:03:27.739Z,6.83
2018-07-28T12:06:08.921Z,7.30
2018-07-28T12:08:50.406Z,6.77
2018-07-28T12:11:31.140Z,7.83
2018-07-28T12:14:12.144Z,7.47
2018-07-28T12:16:53.390Z,7.03
2018-07-28T12:19:40.605Z,7.20
2018-07-28T12:22:21.459Z,7.43
2018-07-28T12:25:02.228Z,8.30
2018-07-28T12:27:43.297Z,9.47
2018-07-28T12:30:24.312Z,9.77
2018-07-28T12:33:05.168Z,9.30
2018-07-28T12:35:46.078Z,9.13
2018-07-28T12:38:26.754Z,9.87
2018-07-28T12:41:07.851Z,9.13
2018-07-28T12:43:48.857Z,10.47
2018-07-28T12:46:29.929Z,9.83
2018-07-28T12:49:11.180Z,11.23
2018-07-28T12:51:52.367Z,8.57
2018-07-28T12:54:33.211Z,12.53
2018-07-28T12:57:13.666Z,8.73
2018-07-28T12:59:54.505Z,8.77
2018-07-28T13:02:35.578Z,10.37
2018-07-28T13:05:16.425Z,8.30
2018-07-28T13:07:57.629Z,7.37
2018-07-28T13:10:38.694Z,7.43
2018-07-28T13:13:19.637Z,9.63
2018-07-28T13:16:00.485Z,9.20
2018-07-28T13:18:41.713Z,7.80
2018-07-28T13:21:22.558Z,7.50
2018-07-28T13:24:02.913Z,7.33
2018-07-28T13:26:43.867Z,8.20
2018-07-28T13:29:24.793Z,13.23
2018-07-28T13:32:06.065Z,8.10
2018-07-28T13:34:46.898Z,8.17
2018-07-28T13:37:27.970Z,8.33
2018-07-28T13:40:09.436Z,8.30
2018-07-28T13:42:50.556Z,8.63
2018-07-28T13:45:30.709Z,8.90
2018-07-28T13:48:11.866Z,9.37
2018-07-28T13:50:52.722Z,10.30
2018-07-28T13:53:33.630Z,8.23
2018-07-28T13:56:14.323Z,8.90
2018-07-28T13:58:55.167Z,9.73
2018-07-28T14:01:35.861Z,7.60
2018-07-28T14:04:17.346Z,6.73
2018-07-28T14:06:58.599Z,7.07
2018-07-28T14:09:39.753Z,7.63
2018-07-28T14:12:21.064Z,6.03
2018-07-28T14:15:02.110Z,6.77
2018-07-28T14:17:43.196Z,5.33
2018-07-28T14:20:24.076Z,7.20
2018-07-28T14:23:04.902Z,5.40
2018-07-28T14:25:45.833Z,6.20
2018-07-28T14:28:26.610Z,6.37
2018-07-28T14:31:08.047Z,6.00
2018-07-28T14:33:48.795Z,6.17
2018-07-28T14:36:29.746Z,5.30
2018-07-28T14:39:10.620Z,5.13
2018-07-28T14:41:52.008Z,5.23
2018-07-28T14:44:33.047Z,5.23
2018-07-28T14:47:14.188Z,5.53
2018-07-28T14:49:55.320Z,5.73
2018-07-28T14:52:36.662Z,5.77
2018-07-28T14:55:18.084Z,5.50
2018-07-28T14:57:59.478Z,6.00
2018-07-28T15:00:40.375Z,5.70
2018-07-28T15:03:21.024Z,6.73
2018-07-28T15:06:02.032Z,5.83
2018-07-28T15:08:43.319Z,5.00
2018-07-28T15:11:24.429Z,52.30
2018-07-28T15:14:05.154Z,21.93
2018-07-28T15:16:45.673Z,8.23
2018-07-28T15:19:26.828Z,6.83
2018-07-28T15:22:07.705Z,6.40
2018-07-28T15:24:48.530Z,7.33
2018-07-28T15:27:29.775Z,6.60
2018-07-28T15:30:10.923Z,6.27
2018-07-28T15:32:51.797Z,6.97
2018-07-28T15:35:32.613Z,6.90
2018-07-28T15:38:13.504Z,6.33
2018-07-28T15:40:59.769Z,7.87
2018-07-28T15:43:40.249Z,7.50
2018-07-28T15:46:20.834Z,8.00
2018-07-28T15:49:02.176Z,7.90
2018-07-28T15:51:42.823Z,6.50
2018-07-28T15:54:23.215Z,6.90
2018-07-28T15:57:04.540Z,7.03
2018-07-28T15:59:46.066Z,7.10
2018-07-28T16:02:26.978Z,7.53
2018-07-28T16:05:08.306Z,7.17
2018-07-28T16:07:48.864Z,7.47
2018-07-28T16:10:30.069Z,8.03
2018-07-28T16:13:10.817Z,7.63
2018-07-28T16:15:51.206Z,8.43
2018-07-28T16:18:32.422Z,7.77
2018-07-28T16:21:13.177Z,6.97
2018-07-28T16:23:55.491Z,7.67
2018-07-28T16:26:36.878Z,7.40
2018-07-28T16:29:17.737Z,8.83
2018-07-28T16:32:00.785Z,20.50
2018-07-28T16:34:41.465Z,13.83
2018-07-28T16:37:22.356Z,11.37
2018-07-28T16:40:03.494Z,9.40
2018-07-28T16:42:44.586Z,13.70
2018-07-28T16:45:25.439Z,8.73
2018-07-28T16:48:05.916Z,8.53
2018-07-28T16:50:46.830Z,8.30
2018-07-28T16:53:27.540Z,11.00
2018-07-28T16:56:08.809Z,12.17
2018-07-28T16:58:49.540Z,10.70
2018-07-28T17:01:30.924Z,7.87
2018-07-28T17:04:12.233Z,7.13
2018-07-28T17:06:52.629Z,8.87
2018-07-28T17:09:33.898Z,6.90
2018-07-28T17:12:14.785Z,7.17
2018-07-28T17:14:55.935Z,9.60
2018-07-28T17:17:36.741Z,7.27
2018-07-28T17:20:17.666Z,11.40
2018-07-28T17:22:58.604Z,9.77
2018-07-28T17:25:39.815Z,6.27
2018-07-28T17:28:21.058Z,6.97
2018-07-28T17:31:02.043Z,7.90
2018-07-28T17:33:43.210Z,7.90
2018-07-28T17:36:23.565Z,8.70
2018-07-28T17:39:06.155Z,6.60
2018-07-28T17:41:47.479Z,7.33
2018-07-28T17:44:28.695Z,7.93
2018-07-28T17:47:09.934Z,7.63
2018-07-28T17:49:50.817Z,9.10
2018-07-28T17:52:31.722Z,7.63
2018-07-28T17:55:12.721Z,5.90
2018-07-28T17:57:53.651Z,5.70
2018-07-28T18:00:38.517Z,5.37
2018-07-28T18:03:19.825Z,6.57
2018-07-28T18:06:00.369Z,5.53
2018-07-28T18:08:40.886Z,5.37
2018-07-28T18:11:21.293Z,6.07
2018-07-28T18:14:02.266Z,7.80
2018-07-28T18:16:43.191Z,5.40
2018-07-28T18:19:25.145Z,5.67
2018-07-28T18:22:05.871Z,8.57
2018-07-28T18:24:46.456Z,5.73
2018-07-28T18:27:27.430Z,5.77
2018-07-28T18:30:08.255Z,5.87
2018-07-28T18:32:48.766Z,5.80
2018-07-28T18:35:30.361Z,6.43
2018-07-28T18:38:10.775Z,7.70
2018-07-28T18:40:51.525Z,8.50
2018-07-28T18:43:32.709Z,6.60
2018-07-28T18:46:14.735Z,6.80
2018-07-28T18:48:56.250Z,6.87
2018-07-28T18:51:37.458Z,7.40
2018-07-28T18:54:18.520Z,6.60
2018-07-28T18:56:59.517Z,6.97
2018-07-28T18:59:40.806Z,10.77
2018-07-28T19:02:21.505Z,9.70
2018-07-28T19:05:02.541Z,8.37
2018-07-28T19:07:43.006Z,7.00
2018-07-28T19:10:23.765Z,8.53
2018-07-28T19:13:10.487Z,7.10
2018-07-28T19:15:51.119Z,6.97
2018-07-28T19:18:36.900Z,8.40
2018-07-28T19:21:17.826Z,6.77
2018-07-28T19:24:01.523Z,7.90
2018-07-28T19:26:41.996Z,8.67
2018-07-28T19:29:27.958Z,7.40
2018-07-28T19:32:08.324Z,7.87
2018-07-28T19:34:49.129Z,8.73
2018-07-28T19:37:30.195Z,14.20
2018-07-28T19:40:11.310Z,7.20
2018-07-28T19:42:52.720Z,8.73
2018-07-28T19:45:33.613Z,7.53
2018-07-28T19:48:14.946Z,7.60
2018-07-28T19:50:56.123Z,7.23
2018-07-28T19:53:37.239Z,6.73
2018-07-28T19:56:18.110Z,7.50
2018-07-28T19:58:58.596Z,7.60
2018-07-28T20:01:39.339Z,8.40
2018-07-28T20:04:20.266Z,8.60
2018-07-28T20:07:00.690Z,8.73
2018-07-28T20:09:41.582Z,9.30
2018-07-28T20:12:22.814Z,8.27
2018-07-28T20:15:03.503Z,7.43
2018-07-28T20:17:44.212Z,7.97
2018-07-28T20:20:25.442Z,11.43
2018-07-28T20:23:06.226Z,8.07
2018-07-28T20:25:46.937Z,6.97
2018-07-28T20:28:27.966Z,7.53
2018-07-28T20:31:09.525Z,6.90
2018-07-28T20:33:50.281Z,7.67
2018-07-28T20:36:31.100Z,8.23
2018-07-28T20:39:12.543Z,11.73
2018-07-28T20:41:53.662Z,8.77
2018-07-28T20:44:34.019Z,7.73
2018-07-28T20:47:15.410Z,8.20
2018-07-28T20:49:56.357Z,8.57
2018-07-28T20:52:37.561Z,8.73
2018-07-28T20:55:18.334Z,8.77
2018-07-28T20:57:59.226Z,9.07
2018-07-28T21:00:40.279Z,8.23
2018-07-28T21:03:20.754Z,8.50
2018-07-28T21:06:02.458Z,7.90
2018-07-28T21:08:43.013Z,8.30
2018-07-28T21:11:23.730Z,8.37
2018-07-28T21:14:04.657Z,8.50
2018-07-28T21:16:45.981Z,7.53
2018-07-28T21:19:27.129Z,7.73
2018-07-28T21:22:08.012Z,8.60
2018-07-28T21:24:48.919Z,8.90
2018-07-28T21:27:29.371Z,8.50
2018-07-28T21:30:10.919Z,7.90
2018-07-28T21:32:51.886Z,9.13
2018-07-28T21:35:32.325Z,9.13
2018-07-28T21:38:13.378Z,8.23
2018-07-28T21:40:55.219Z,8.73
2018-07-28T21:43:36.807Z,8.20
2018-07-28T21:46:18.133Z,9.60
2018-07-28T21:48:59.157Z,9.50
2018-07-28T21:51:40.118Z,9.47
2018-07-28T21:54:21.100Z,8.53
2018-07-28T21:57:02.424Z,8.37
2018-07-28T21:59:43.908Z,9.30
2018-07-28T22:02:24.638Z,8.57
2018-07-28T22:05:05.542Z,9.37
2018-07-28T22:07:46.730Z,8.53
2018-07-28T22:10:28.141Z,9.27
2018-07-28T22:13:08.930Z,9.23
2018-07-28T22:15:50.200Z,9.67
2018-07-28T22:18:31.457Z,8.53
2018-07-28T22:21:12.272Z,9.27
2018-07-28T22:23:52.952Z,8.13
2018-07-28T22:26:33.868Z,10.33
2018-07-28T22:29:14.273Z,7.80
2018-07-28T22:31:55.357Z,8.97
2018-07-28T22:34:36.297Z,8.60
2018-07-28T22:37:16.934Z,8.80
2018-07-28T22:39:57.760Z,8.87
2018-07-28T22:42:49.737Z,9.13
2018-07-28T22:45:30.169Z,12.47
2018-07-28T22:48:10.664Z,10.10
2018-07-28T22:50:51.989Z,10.87
2018-07-28T22:53:33.566Z,11.30
2018-07-28T22:56:14.202Z,10.30
2018-07-28T22:58:55.722Z,11.13
2018-07-28T23:01:36.846Z,10.33
2018-07-28T23:04:17.521Z,10.70
2018-07-28T23:06:58.822Z,12.27
2018-07-28T23:09:39.289Z,10.80
2018-07-28T23:12:20.413Z,10.80
2018-07-28T23:15:01.362Z,9.53
2018-07-28T23:17:42.925Z,10.43
2018-07-28T23:20:23.811Z,9.83
2018-07-28T23:23:04.237Z,10.03
2018-07-28T23:25:45.332Z,11.07
2018-07-28T23:28:26.154Z,12.67
2018-07-28T23:31:06.753Z,11.07
2018-07-28T23:33:47.252Z,9.93
2018-07-28T23:36:27.729Z,9.23
2018-07-28T23:39:09.588Z,9.33
2018-07-28T23:41:51.643Z,9.63
2018-07-28T23:44:32.381Z,8.57
2018-07-28T23:47:12.893Z,9.43
2018-07-28T23:49:53.396Z,9.27
2018-07-28T23:52:33.841Z,8.83
2018-07-28T23:55:14.615Z,9.03
2018-07-28T23:57:55.316Z,11.43
